Time;durP1;ratioP1;P1;durP2;ratioP2;P2;SDS_P1;SDS_P2;PMS_P1;PMS_P2;Temp;Humidity;BMP_temperature;BMP_pressure;BME280_temperature;BME280_humidity;BME280_pressure;Samples;Min_cycle;Max_cycle;Signal;HPM_P1;HPM_P2
2021/08/28 00:01:02;;;;;;;1.90;1.75;;;16.20;55.80;;;;;;5043621;22;20315;-49
2021/08/28 00:03:33;;;;;;;2.35;2.15;;;16.20;55.80;;;;;;5032585;28;20323;-51
2021/08/28 00:06:03;;;;;;;2.00;1.90;;;16.20;55.80;;;;;;5032692;28;20648;-52
2021/08/28 00:08:36;;;;;;;2.35;2.10;;;16.20;55.70;;;;;;5032513;28;20754;-47
2021/08/28 00:11:06;;;;;;;2.50;2.30;;;16.20;55.70;;;;;;5032850;28;20305;-49
2021/08/28 00:13:36;;;;;;;2.60;2.40;;;16.20;55.70;;;;;;5032735;28;20637;-50
2021/08/28 00:16:07;;;;;;;2.35;2.15;;;16.20;55.70;;;;;;5032948;28;20705;-50
2021/08/28 00:18:37;;;;;;;2.35;2.15;;;16.20;55.70;;;;;;5032857;28;20254;-52
2021/08/28 00:21:08;;;;;;;2.40;2.20;;;16.30;55.70;;;;;;5032857;28;20596;-49
2021/08/28 00:23:40;;;;;;;2.42;2.22;;;16.30;56.30;;;;;;5031986;28;20250;-48
2021/08/28 00:26:11;;;;;;;2.65;2.45;;;16.30;55.70;;;;;;5032508;28;20281;-56
2021/08/28 00:28:41;;;;;;;2.35;2.15;;;16.30;55.80;;;;;;5032479;28;20259;-47
2021/08/28 00:31:11;;;;;;;2.50;2.30;;;16.30;55.70;;;;;;5032480;28;20232;-54
2021/08/28 00:33:42;;;;;;;2.35;2.13;;;16.30;55.70;;;;;;5018245;28;20223;-50
2021/08/28 00:36:12;;;;;;;2.20;2.00;;;16.30;55.70;;;;;;5012812;28;20247;-52
2021/08/28 00:38:47;;;;;;;2.60;2.40;;;16.30;56.40;;;;;;5012477;28;20260;-63
2021/08/28 00:41:17;;;;;;;2.90;2.53;;;16.40;56.00;;;;;;5023191;28;20192;-59
2021/08/28 00:43:47;;;;;;;2.85;2.53;;;16.40;55.90;;;;;;5031642;28;20287;-59
2021/08/28 00:46:18;;;;;;;2.58;2.30;;;16.40;55.90;;;;;;5028420;28;20221;-63
2021/08/28 00:48:49;;;;;;;2.33;2.13;;;16.40;55.90;;;;;;5012597;28;20248;-62
2021/08/28 00:51:19;;;;;;;2.80;2.60;;;16.40;55.90;;;;;;5013231;28;20251;-58
2021/08/28 00:53:52;;;;;;;4.57;3.13;;;16.40;55.90;;;;;;5012215;28;20224;-48
2021/08/28 00:56:23;;;;;;;3.33;2.72;;;16.40;56.00;;;;;;5012320;28;20239;-53
2021/08/28 00:58:53;;;;;;;5.60;2.83;;;16.50;56.10;;;;;;5019186;28;20231;-66
2021/08/28 01:01:24;;;;;;;4.15;3.20;;;16.50;56.00;;;;;;5036586;22;20256;-62
2021/08/28 01:04:00;;;;;;;4.47;4.00;;;16.50;56.20;;;;;;5011597;28;20239;-56
2021/08/28 01:06:37;;;;;;;12.05;10.57;;;16.50;56.30;;;;;;5010388;28;20267;-45
2021/08/28 01:09:14;;;;;;;21.23;9.48;;;16.50;56.60;;;;;;4992642;28;20221;-49
2021/08/28 01:11:48;;;;;;;46.05;7.45;;;16.40;56.80;;;;;;4992303;28;20240;-49
2021/08/28 01:14:19;;;;;;;44.58;6.47;;;16.40;56.80;;;;;;4992326;28;20232;-57
2021/08/28 01:16:50;;;;;;;51.55;6.15;;;16.40;56.80;;;;;;4992251;28;20197;-54
2021/08/28 01:19:24;;;;;;;39.22;6.15;;;16.40;56.70;;;;;;5004694;28;20266;-54
2021/08/28 01:21:55;;;;;;;35.05;5.68;;;16.40;56.80;;;;;;5011689;28;20302;-54
2021/08/28 01:24:27;;;;;;;23.48;5.80;;;16.40;57.00;;;;;;5011240;28;20277;-52
2021/08/28 01:27:04;;;;;;;42.28;6.32;;;16.40;57.00;;;;;;5010306;28;20271;-48
2021/08/28 01:29:36;;;;;;;33.85;5.75;;;16.40;57.10;;;;;;5011047;28;20313;-46
2021/08/28 01:32:07;;;;;;;31.80;5.55;;;16.40;57.10;;;;;;5010719;28;20232;-55
2021/08/28 01:34:37;;;;;;;27.48;5.35;;;16.50;57.20;;;;;;5010155;28;20640;-46
2021/08/28 01:37:08;;;;;;;24.13;5.18;;;16.50;57.20;;;;;;4992123;28;20237;-49
2021/08/28 01:39:38;;;;;;;19.60;4.78;;;16.50;57.10;;;;;;4990986;28;20252;-51
2021/08/28 01:42:09;;;;;;;18.02;4.63;;;16.50;57.10;;;;;;4991175;28;20269;-49
2021/08/28 01:44:41;;;;;;;22.17;4.40;;;16.60;57.00;;;;;;4991318;28;20259;-47
2021/08/28 01:47:12;;;;;;;21.88;4.75;;;16.50;57.00;;;;;;4991297;28;20229;-53
2021/08/28 01:49:42;;;;;;;22.25;4.90;;;16.60;56.90;;;;;;4991183;28;20240;-45
2021/08/28 01:52:12;;;;;;;25.50;4.85;;;16.60;56.90;;;;;;4991398;28;20276;-48
2021/08/28 01:54:43;;;;;;;15.02;4.40;;;16.60;56.90;;;;;;4991723;28;20612;-50
2021/08/28 01:57:13;;;;;;;19.67;4.20;;;16.60;56.80;;;;;;4991014;28;20248;-45
2021/08/28 01:59:46;;;;;;;19.17;3.78;;;16.60;56.70;;;;;;4991201;28;20300;-46
2021/08/28 02:02:16;;;;;;;17.67;3.97;;;16.70;56.80;;;;;;5015904;23;20657;-46
2021/08/28 02:04:47;;;;;;;16.98;4.20;;;16.70;56.70;;;;;;5010853;28;20192;-53
2021/08/28 02:07:22;;;;;;;17.15;3.47;;;16.70;56.70;;;;;;5010279;28;20233;-62
2021/08/28 02:09:54;;;;;;;17.73;6.85;;;16.70;56.70;;;;;;5010303;28;20196;-54
2021/08/28 02:12:30;;;;;;;15.23;4.85;;;16.70;56.60;;;;;;5010536;28;20232;-52
2021/08/28 02:15:08;;;;;;;12.93;5.53;;;16.80;57.10;;;;;;5011621;28;20235;-50
2021/08/28 02:17:43;;;;;;;16.92;6.13;;;16.80;57.50;;;;;;5010773;28;20209;-54
2021/08/28 02:20:15;;;;;;;8.68;4.80;;;16.80;57.50;;;;;;5010243;28;20232;-58
2021/08/28 02:22:48;;;;;;;10.15;4.65;;;16.90;57.60;;;;;;5010447;28;20225;-53
2021/08/28 02:25:26;;;;;;;11.77;5.32;;;16.90;57.60;;;;;;5010283;28;20212;-59
2021/08/28 02:27:59;;;;;;;11.30;4.88;;;16.90;57.50;;;;;;5010568;28;20373;-57
2021/08/28 02:30:31;;;;;;;11.60;5.53;;;16.90;57.40;;;;;;5010302;28;20235;-51
2021/08/28 02:33:01;;;;;;;11.68;5.22;;;16.90;57.30;;;;;;5010711;28;20288;-60
2021/08/28 02:35:32;;;;;;;11.25;5.60;;;17.00;57.80;;;;;;5011185;28;20221;-52
2021/08/28 02:38:02;;;;;;;13.45;5.70;;;17.00;57.20;;;;;;5011735;28;20259;-55
2021/08/28 02:40:33;;;;;;;12.05;5.72;;;17.00;57.20;;;;;;5010776;28;20228;-56
2021/08/28 02:43:03;;;;;;;12.38;6.20;;;17.00;57.10;;;;;;5011085;28;20318;-54
2021/08/28 02:45:35;;;;;;;12.57;5.60;;;17.00;57.00;;;;;;5011722;28;20240;-56
2021/08/28 02:48:06;;;;;;;12.02;5.70;;;17.00;57.00;;;;;;5014555;28;20264;-56
2021/08/28 02:50:37;;;;;;;13.90;5.65;;;17.00;57.00;;;;;;5015113;28;20232;-53
2021/08/28 02:53:07;;;;;;;12.43;5.70;;;17.00;56.90;;;;;;5014999;28;20624;-59
2021/08/28 02:55:38;;;;;;;12.45;5.45;;;17.10;56.90;;;;;;5014561;28;20197;-54
2021/08/28 02:58:08;;;;;;;13.32;5.88;;;17.10;56.90;;;;;;5014394;28;20233;-58
2021/08/28 03:03:08;;;;;;;11.90;6.30;;;17.10;56.80;;;;;;4992939;28;20229;-55
2021/08/28 03:05:39;;;;;;;12.68;5.95;;;17.10;56.70;;;;;;4994930;28;20198;-50
2021/08/28 03:08:09;;;;;;;12.65;6.70;;;17.10;56.70;;;;;;5003145;28;20648;-48
2021/08/28 03:10:40;;;;;;;12.07;6.45;;;17.10;56.60;;;;;;4999433;28;20221;-47
2021/08/28 03:13:10;;;;;;;14.45;6.90;;;17.10;56.60;;;;;;4994249;28;20233;-52
2021/08/28 03:15:41;;;;;;;15.68;7.63;;;17.10;56.60;;;;;;4994965;28;20229;-51
2021/08/28 03:18:13;;;;;;;13.35;7.35;;;17.10;56.60;;;;;;4994401;28;20264;-55
2021/08/28 03:20:44;;;;;;;12.48;6.28;;;17.10;56.60;;;;;;4994178;28;20240;-46
2021/08/28 03:23:15;;;;;;;13.50;6.43;;;17.20;56.60;;;;;;4994535;28;20560;-50
2021/08/28 03:25:45;;;;;;;12.90;6.72;;;17.10;56.60;;;;;;4994284;28;20256;-52
2021/08/28 03:28:16;;;;;;;11.73;5.88;;;17.10;56.60;;;;;;4994005;28;20537;-49
2021/08/28 03:30:47;;;;;;;10.65;5.45;;;17.10;56.50;;;;;;4993510;28;20508;-53
2021/08/28 03:33:22;;;;;;;11.27;6.50;;;17.20;56.60;;;;;;5012506;28;20367;-52
2021/08/28 03:35:52;;;;;;;10.70;6.07;;;17.10;56.50;;;;;;5002745;28;20719;-48
2021/08/28 03:38:23;;;;;;;11.05;5.90;;;17.10;56.50;;;;;;4993682;28;20256;-47
2021/08/28 03:40:53;;;;;;;10.88;5.70;;;17.20;56.50;;;;;;4993866;28;20225;-56
2021/08/28 03:43:24;;;;;;;12.52;6.85;;;17.20;56.40;;;;;;4993706;28;20316;-51
2021/08/28 03:45:54;;;;;;;11.30;5.80;;;17.20;56.40;;;;;;4993553;28;20236;-46
2021/08/28 03:48:26;;;;;;;11.75;5.63;;;17.20;56.40;;;;;;4993575;28;20249;-49
2021/08/28 03:50:58;;;;;;;9.98;5.55;;;17.20;56.40;;;;;;4993368;28;20244;-44
2021/08/28 03:53:28;;;;;;;11.93;6.25;;;17.20;56.40;;;;;;4993389;28;20225;-54
2021/08/28 03:55:59;;;;;;;10.60;5.90;;;17.20;56.40;;;;;;4991717;28;20271;-48
2021/08/28 03:58:29;;;;;;;10.85;6.03;;;17.20;56.40;;;;;;4992073;28;20656;-49
2021/08/28 04:01:00;;;;;;;10.93;5.95;;;17.20;56.40;;;;;;5005031;23;20563;-55
2021/08/28 04:03:32;;;;;;;10.75;5.85;;;17.20;56.30;;;;;;4993888;28;20684;-49
2021/08/28 04:06:02;;;;;;;11.00;5.32;;;17.20;56.30;;;;;;4993130;28;20201;-49
2021/08/28 04:08:33;;;;;;;9.38;5.20;;;17.20;56.30;;;;;;4993291;28;20269;-46
2021/08/28 04:11:03;;;;;;;9.82;5.10;;;17.30;56.40;;;;;;4993778;28;20638;-47
2021/08/28 04:13:34;;;;;;;7.45;4.88;;;17.20;56.30;;;;;;4992556;28;20632;-48
2021/08/28 04:16:04;;;;;;;10.32;5.72;;;17.30;56.30;;;;;;4993069;28;20620;-48
2021/08/28 04:18:36;;;;;;;12.23;5.57;;;17.30;56.30;;;;;;4992187;28;20253;-48
2021/08/28 04:21:07;;;;;;;9.25;5.38;;;17.30;56.20;;;;;;4993125;28;20280;-54
2021/08/28 04:23:37;;;;;;;8.77;4.80;;;17.30;56.20;;;;;;4991612;28;20225;-46
2021/08/28 04:26:08;;;;;;;10.20;5.30;;;17.30;56.20;;;;;;4993403;28;20671;-48
2021/08/28 04:28:39;;;;;;;10.10;5.43;;;17.30;56.20;;;;;;4991718;28;20221;-48
2021/08/28 04:31:09;;;;;;;9.95;5.15;;;17.30;56.20;;;;;;4993094;28;20229;-46
2021/08/28 04:33:42;;;;;;;10.90;6.10;;;17.30;56.20;;;;;;4992518;28;20202;-47
2021/08/28 04:36:12;;;;;;;8.40;5.72;;;17.30;56.30;;;;;;4992358;28;20229;-49
2021/08/28 04:38:42;;;;;;;10.60;5.00;;;17.30;56.30;;;;;;4992864;28;20658;-53
2021/08/28 04:41:13;;;;;;;8.20;5.03;;;17.30;56.30;;;;;;4991303;28;20292;-56
2021/08/28 04:43:43;;;;;;;9.93;5.55;;;17.30;56.20;;;;;;4992351;28;20260;-59
2021/08/28 04:46:14;;;;;;;10.35;4.80;;;17.30;56.30;;;;;;4992054;28;20197;-58
2021/08/28 04:48:47;;;;;;;8.70;5.32;;;17.30;56.20;;;;;;4992139;28;20725;-55
2021/08/28 04:51:18;;;;;;;9.25;5.43;;;17.30;56.30;;;;;;4991810;28;20708;-61
2021/08/28 04:53:48;;;;;;;8.98;5.43;;;17.30;56.10;;;;;;4992604;28;20205;-47
2021/08/28 04:56:19;;;;;;;9.13;5.13;;;17.30;56.70;;;;;;4992508;28;20256;-58
2021/08/28 04:58:49;;;;;;;10.07;5.55;;;17.30;56.20;;;;;;4991966;28;20360;-57
2021/08/28 05:01:19;;;;;;;9.25;4.88;;;17.30;56.20;;;;;;5009575;22;20224;-56
2021/08/28 05:03:52;;;;;;;10.35;5.40;;;17.30;56.10;;;;;;4992715;28;20264;-42
2021/08/28 05:06:22;;;;;;;9.10;4.95;;;17.30;56.10;;;;;;4991747;28;20224;-42
2021/08/28 05:08:53;;;;;;;8.70;5.18;;;17.30;56.10;;;;;;4991764;28;20255;-42
2021/08/28 05:11:23;;;;;;;9.38;5.40;;;17.30;56.10;;;;;;4991957;28;20333;-53
2021/08/28 05:13:53;;;;;;;8.95;5.10;;;17.30;56.10;;;;;;4992059;28;20260;-48
2021/08/28 05:16:24;;;;;;;9.65;5.20;;;17.30;56.10;;;;;;4991702;28;20229;-48
2021/08/28 05:18:56;;;;;;;10.63;5.50;;;17.30;56.10;;;;;;4992450;28;20291;-51
2021/08/28 05:21:27;;;;;;;9.43;4.75;;;17.30;56.10;;;;;;5010594;28;20284;-48
2021/08/28 05:23:57;;;;;;;8.70;5.38;;;17.30;56.10;;;;;;5011468;28;20307;-53
2021/08/28 05:26:27;;;;;;;7.82;5.05;;;17.30;56.20;;;;;;5011141;28;20233;-50
2021/08/28 05:28:58;;;;;;;7.78;4.88;;;17.30;56.10;;;;;;5011099;28;20634;-44
2021/08/28 05:31:28;;;;;;;8.80;5.63;;;17.30;56.10;;;;;;5010193;28;20756;-47
2021/08/28 05:34:01;;;;;;;8.27;4.97;;;17.30;56.20;;;;;;5011143;28;20724;-45
2021/08/28 05:36:31;;;;;;;7.13;4.70;;;17.30;56.20;;;;;;4995011;28;20617;-51
2021/08/28 05:39:01;;;;;;;7.65;5.13;;;17.30;56.10;;;;;;4991803;28;20268;-55
2021/08/28 05:41:32;;;;;;;8.82;5.63;;;17.30;56.10;;;;;;4991814;28;20645;-46
2021/08/28 05:44:03;;;;;;;6.65;4.85;;;17.30;56.10;;;;;;5011086;28;20228;-53
2021/08/28 05:46:33;;;;;;;8.38;4.30;;;17.30;56.20;;;;;;5011348;28;20232;-49
2021/08/28 05:49:05;;;;;;;7.18;4.97;;;17.30;56.30;;;;;;5009732;28;20282;-47
2021/08/28 05:51:36;;;;;;;8.30;5.00;;;17.30;56.40;;;;;;5010937;28;20232;-46
2021/08/28 05:54:06;;;;;;;7.95;5.45;;;17.30;56.30;;;;;;5010940;28;20665;-54
2021/08/28 05:56:37;;;;;;;8.02;5.00;;;17.30;56.40;;;;;;5010946;28;20696;-45
2021/08/28 05:59:07;;;;;;;7.28;5.32;;;17.30;56.40;;;;;;5010710;28;20318;-50
2021/08/28 06:01:37;;;;;;;7.13;5.10;;;17.30;56.30;;;;;;5010584;28;20619;-42
2021/08/28 06:04:10;;;;;;;7.05;5.13;;;17.20;56.30;;;;;;5010108;28;20377;-41
2021/08/28 06:06:40;;;;;;;7.57;5.07;;;17.20;56.30;;;;;;5010802;28;20239;-51
2021/08/28 06:09:11;;;;;;;7.47;5.32;;;17.20;56.20;;;;;;5010739;28;20248;-41
2021/08/28 06:11:41;;;;;;;6.80;4.88;;;17.20;56.20;;;;;;5010259;28;20232;-41
2021/08/28 06:14:11;;;;;;;7.85;4.70;;;17.20;56.10;;;;;;5011163;28;20231;-51
2021/08/28 06:16:42;;;;;;;8.25;5.15;;;17.20;56.10;;;;;;5010137;28;20240;-48
2021/08/28 06:19:14;;;;;;;6.68;5.03;;;17.20;56.10;;;;;;5010788;28;20248;-50
2021/08/28 06:21:45;;;;;;;10.95;6.53;;;17.20;56.10;;;;;;5013619;28;20288;-46
2021/08/28 06:24:15;;;;;;;9.65;5.18;;;17.20;56.10;;;;;;5015108;28;20310;-44
2021/08/28 06:26:45;;;;;;;7.13;5.00;;;17.20;56.00;;;;;;5012906;28;20235;-44
2021/08/28 06:29:16;;;;;;;8.73;5.72;;;17.20;56.10;;;;;;5013676;28;20638;-45
2021/08/28 06:31:46;;;;;;;9.20;6.38;;;17.20;56.10;;;;;;5013853;28;20228;-48
2021/08/28 06:34:19;;;;;;;7.03;5.10;;;17.20;56.20;;;;;;5014676;28;20655;-44
2021/08/28 06:36:49;;;;;;;8.65;5.90;;;17.20;56.10;;;;;;4996052;28;20632;-49
2021/08/28 06:39:19;;;;;;;7.60;5.40;;;17.20;56.10;;;;;;4994186;28;20639;-43
2021/08/28 06:41:50;;;;;;;7.55;5.50;;;17.10;56.00;;;;;;4994833;28;20245;-52
2021/08/28 06:44:20;;;;;;;8.35;5.50;;;17.10;56.10;;;;;;4994254;28;20311;-45
2021/08/28 06:46:51;;;;;;;7.03;5.45;;;17.10;56.10;;;;;;4994116;28;20292;-50
2021/08/28 06:49:23;;;;;;;7.80;5.13;;;17.10;56.00;;;;;;4994421;28;20253;-43
2021/08/28 06:51:54;;;;;;;8.18;5.20;;;17.10;56.00;;;;;;4994708;28;20280;-50
2021/08/28 06:54:25;;;;;;;7.18;4.88;;;17.10;56.00;;;;;;5001996;28;20195;-51
2021/08/28 06:56:55;;;;;;;7.47;5.40;;;17.10;56.00;;;;;;5014438;28;20236;-47
2021/08/28 06:59:26;;;;;;;6.88;5.10;;;17.10;56.00;;;;;;5013790;28;20575;-47
2021/08/28 07:01:56;;;;;;;7.55;5.25;;;17.10;55.90;;;;;;5025552;22;20310;-58
2021/08/28 07:04:28;;;;;;;7.60;5.53;;;17.10;55.90;;;;;;5014167;28;20316;-63
2021/08/28 07:06:59;;;;;;;6.25;4.82;;;17.10;56.00;;;;;;5012569;28;20263;-49
2021/08/28 07:09:29;;;;;;;6.63;5.20;;;17.10;56.10;;;;;;5013212;28;20263;-59
2021/08/28 07:12:00;;;;;;;7.80;5.05;;;17.10;56.00;;;;;;5014367;28;20552;-47
2021/08/28 07:14:30;;;;;;;8.43;4.95;;;17.10;56.00;;;;;;5014335;28;20629;-46
2021/08/28 07:17:01;;;;;;;5.88;5.05;;;17.10;56.00;;;;;;5013888;28;20309;-47
2021/08/28 07:19:33;;;;;;;6.75;5.20;;;17.10;56.00;;;;;;5012905;28;20303;-49
2021/08/28 07:22:04;;;;;;;5.78;4.50;;;17.10;56.00;;;;;;5011218;28;20220;-54
2021/08/28 07:24:34;;;;;;;5.45;4.45;;;17.00;55.90;;;;;;5013159;28;20710;-48
2021/08/28 07:27:05;;;;;;;6.95;4.93;;;17.00;56.00;;;;;;5013552;28;20284;-49
2021/08/28 07:29:35;;;;;;;6.45;4.60;;;17.00;55.90;;;;;;5013256;28;20256;-51
2021/08/28 07:32:06;;;;;;;5.75;4.57;;;17.00;55.90;;;;;;5013620;28;20232;-47
2021/08/28 07:34:39;;;;;;;4.70;3.88;;;17.00;55.90;;;;;;5013432;28;20197;-51
2021/08/28 07:37:09;;;;;;;6.40;4.63;;;17.00;55.90;;;;;;5012923;28;20208;-54
2021/08/28 07:39:39;;;;;;;5.35;4.28;;;17.00;55.90;;;;;;5013722;28;20243;-50
2021/08/28 07:42:10;;;;;;;6.95;4.75;;;17.00;56.00;;;;;;5014030;28;20197;-47
2021/08/28 07:44:40;;;;;;;6.43;4.57;;;17.00;55.90;;;;;;5014126;28;20220;-50
2021/08/28 07:47:11;;;;;;;6.00;4.43;;;16.90;55.80;;;;;;5014068;28;20241;-54
2021/08/28 07:49:43;;;;;;;5.00;4.03;;;16.90;55.90;;;;;;5013649;28;20232;-50
2021/08/28 07:52:16;;;;;;;7.65;4.15;;;16.90;56.50;;;;;;5013207;28;20228;-50
2021/08/28 07:54:46;;;;;;;4.88;4.05;;;16.90;56.00;;;;;;5013649;28;20284;-51
2021/08/28 07:57:17;;;;;;;4.85;3.83;;;16.90;56.10;;;;;;5013465;28;20204;-46
2021/08/28 07:59:47;;;;;;;6.35;4.32;;;16.90;56.10;;;;;;5014153;28;20569;-53
2021/08/28 08:02:18;;;;;;;5.30;4.32;;;16.90;56.10;;;;;;5015299;22;20658;-42
2021/08/28 08:04:50;;;;;;;5.55;4.53;;;17.00;56.10;;;;;;4993872;28;20702;-42
2021/08/28 08:07:20;;;;;;;6.05;4.07;;;16.90;56.10;;;;;;4993592;28;20244;-41
2021/08/28 08:09:51;;;;;;;6.78;4.43;;;17.00;56.10;;;;;;4993443;28;20293;-50
2021/08/28 08:12:21;;;;;;;5.10;4.10;;;16.90;56.00;;;;;;4992851;28;20244;-49
2021/08/28 08:14:52;;;;;;;4.80;4.30;;;16.90;56.00;;;;;;4993324;28;20241;-50
2021/08/28 08:17:22;;;;;;;4.68;3.70;;;16.90;56.00;;;;;;4993679;28;20251;-49
2021/08/28 08:19:54;;;;;;;6.65;4.20;;;16.90;56.00;;;;;;4993307;28;20237;-54
2021/08/28 08:22:25;;;;;;;4.78;4.25;;;16.90;56.00;;;;;;4992948;28;20225;-44
2021/08/28 08:24:55;;;;;;;4.75;3.78;;;16.90;56.00;;;;;;4993016;28;20261;-42
2021/08/28 08:27:26;;;;;;;5.78;4.75;;;16.90;56.00;;;;;;4992846;28;20276;-53
2021/08/28 08:29:56;;;;;;;5.07;4.25;;;16.90;56.00;;;;;;4992795;28;20271;-51
2021/08/28 08:32:26;;;;;;;5.10;3.95;;;16.90;56.00;;;;;;4993137;28;20251;-52
2021/08/28 08:35:00;;;;;;;5.13;4.30;;;16.80;55.90;;;;;;4993113;28;20673;-47
2021/08/28 08:37:30;;;;;;;5.22;4.45;;;16.80;56.00;;;;;;4992968;28;20725;-53
2021/08/28 08:40:01;;;;;;;7.40;4.85;;;16.80;55.90;;;;;;4993332;28;20771;-51
2021/08/28 08:42:31;;;;;;;6.60;4.85;;;16.80;56.00;;;;;;4992475;28;20240;-51
2021/08/28 08:45:02;;;;;;;6.28;4.90;;;16.80;56.00;;;;;;4992404;28;20265;-55
2021/08/28 08:47:32;;;;;;;5.45;4.13;;;16.80;56.00;;;;;;4993062;28;20249;-52
2021/08/28 08:50:05;;;;;;;5.20;4.68;;;16.80;56.10;;;;;;4993383;28;20229;-52
2021/08/28 08:52:35;;;;;;;6.22;4.70;;;16.80;56.00;;;;;;4993162;28;20733;-46
2021/08/28 08:55:06;;;;;;;6.07;4.53;;;16.80;56.00;;;;;;4992880;28;20689;-45
2021/08/28 08:57:36;;;;;;;4.70;4.15;;;16.80;55.90;;;;;;5009658;28;20247;-52
2021/08/28 09:00:07;;;;;;;5.43;4.40;;;16.80;56.00;;;;;;5012497;28;20286;-47
2021/08/28 09:02:38;;;;;;;6.00;4.18;;;16.70;55.90;;;;;;5011308;22;20225;-51
2021/08/28 09:05:11;;;;;;;5.63;4.50;;;16.80;56.00;;;;;;4992534;28;20267;-46
2021/08/28 09:07:41;;;;;;;5.90;4.90;;;16.70;55.90;;;;;;4992755;28;20276;-51
2021/08/28 09:10:13;;;;;;;5.13;4.53;;;16.80;56.00;;;;;;4993012;28;20248;-49
2021/08/28 09:12:44;;;;;;;5.70;5.10;;;16.80;56.00;;;;;;4993050;28;20209;-47
2021/08/28 09:15:14;;;;;;;4.60;4.15;;;16.70;56.00;;;;;;4992669;28;20252;-48
2021/08/28 09:17:45;;;;;;;6.18;4.78;;;16.70;56.60;;;;;;4992937;28;20271;-49
2021/08/28 09:20:23;;;;;;;6.10;4.40;;;16.70;56.00;;;;;;4995088;28;20665;-48
2021/08/28 09:23:04;;;;;;;5.00;4.50;;;16.70;56.10;;;;;;4992531;28;20636;-47
2021/08/28 09:25:34;;;;;;;4.90;4.28;;;16.70;56.00;;;;;;4992090;28;20283;-50
2021/08/28 09:28:05;;;;;;;4.63;3.85;;;16.70;56.00;;;;;;4992239;28;20257;-55
2021/08/28 09:30:38;;;;;;;5.22;4.70;;;16.60;55.90;;;;;;4992313;28;20233;-47
2021/08/28 09:33:09;;;;;;;6.03;4.63;;;16.60;56.00;;;;;;4991905;28;20204;-46
2021/08/28 09:35:42;;;;;;;6.00;4.22;;;16.70;56.00;;;;;;4991399;28;20197;-47
2021/08/28 09:38:13;;;;;;;4.95;4.20;;;16.70;56.00;;;;;;4991432;28;20276;-46
2021/08/28 09:40:44;;;;;;;6.78;4.57;;;16.60;55.90;;;;;;4992074;28;20245;-59
2021/08/28 09:43:15;;;;;;;6.18;4.50;;;16.70;56.10;;;;;;4992017;28;20251;-51
2021/08/28 09:45:46;;;;;;;5.20;3.70;;;16.70;56.30;;;;;;4992090;28;20261;-47
2021/08/28 09:48:17;;;;;;;5.28;4.00;;;16.60;56.20;;;;;;4991969;28;20231;-52
2021/08/28 09:50:50;;;;;;;4.88;4.18;;;16.70;56.20;;;;;;4991921;28;20236;-48
2021/08/28 09:53:22;;;;;;;6.85;3.97;;;16.60;56.80;;;;;;4991988;28;20201;-51
2021/08/28 09:55:57;;;;;;;5.53;4.20;;;16.60;56.20;;;;;;4991725;28;20745;-47
2021/08/28 09:58:27;;;;;;;4.78;3.97;;;16.60;56.20;;;;;;4991488;28;20261;-46
2021/08/28 10:03:31;;;;;;;6.50;4.53;;;16.60;56.20;;;;;;5009496;28;20208;-43
2021/08/28 10:06:04;;;;;;;7.40;5.13;;;16.60;56.20;;;;;;5010203;28;20775;-51
2021/08/28 10:08:34;;;;;;;7.50;4.93;;;16.60;56.20;;;;;;5009989;28;20719;-50
2021/08/28 10:11:04;;;;;;;7.07;5.15;;;16.60;56.20;;;;;;5010782;28;20236;-45
2021/08/28 10:13:35;;;;;;;7.43;4.78;;;16.60;56.20;;;;;;5010325;28;20235;-43
2021/08/28 10:16:07;;;;;;;6.65;5.10;;;16.60;56.20;;;;;;5009361;28;20197;-41
2021/08/28 10:18:38;;;;;;;7.22;5.20;;;16.60;56.10;;;;;;5010150;28;20255;-42
2021/08/28 10:21:11;;;;;;;6.95;5.25;;;16.60;56.10;;;;;;5010924;28;20251;-44
2021/08/28 10:23:41;;;;;;;7.20;5.18;;;16.50;56.10;;;;;;5010490;28;20577;-50
2021/08/28 10:26:13;;;;;;;7.97;5.38;;;16.60;56.10;;;;;;5011006;28;20311;-59
2021/08/28 10:28:43;;;;;;;6.97;5.25;;;16.50;56.10;;;;;;5010129;28;20303;-55
2021/08/28 10:31:14;;;;;;;8.50;6.00;;;16.50;56.10;;;;;;5011085;28;20201;-41
2021/08/28 10:33:44;;;;;;;8.23;5.90;;;16.50;56.20;;;;;;5009936;28;20292;-48
2021/08/28 10:36:17;;;;;;;7.95;5.80;;;16.60;56.30;;;;;;5010203;28;20243;-46
2021/08/28 10:38:48;;;;;;;8.35;6.20;;;16.50;56.20;;;;;;5009907;28;20766;-49
2021/08/28 10:41:18;;;;;;;20.27;6.15;;;16.50;56.20;;;;;;5010169;28;20197;-43
2021/08/28 10:43:49;;;;;;;12.80;6.00;;;16.60;56.30;;;;;;5010467;28;20232;-44
2021/08/28 10:46:22;;;;;;;8.45;5.13;;;16.50;56.20;;;;;;5009231;28;20260;-41
2021/08/28 10:48:54;;;;;;;7.95;5.38;;;16.50;56.20;;;;;;5009553;28;20267;-58
2021/08/28 10:51:33;;;;;;;6.63;4.88;;;16.50;56.20;;;;;;5009480;28;20237;-50
2021/08/28 10:54:05;;;;;;;11.27;5.07;;;16.50;56.20;;;;;;5009860;28;20287;-42
2021/08/28 10:56:46;;;;;;;10.90;5.38;;;16.50;56.20;;;;;;5010286;28;20696;-43
2021/08/28 10:59:23;;;;;;;13.65;5.72;;;16.50;56.20;;;;;;5011302;28;20248;-49
2021/08/28 11:02:00;;;;;;;12.80;5.68;;;16.50;56.20;;;;;;5011400;28;20205;-42
2021/08/28 11:04:40;;;;;;;11.50;5.50;;;16.50;56.20;;;;;;5011447;28;20204;-50
2021/08/28 11:07:23;;;;;;;13.50;5.93;;;16.50;56.10;;;;;;5012765;28;20634;-50
2021/08/28 11:10:18;;;;;;;8.25;5.03;;;16.50;56.20;;;;;;5014487;28;20649;-55
2021/08/28 11:13:05;;;;;;;12.75;5.53;;;16.50;56.20;;;;;;5012986;28;20279;-50
2021/08/28 11:15:56;;;;;;;13.15;5.32;;;16.50;56.20;;;;;;5014734;28;20228;-55
2021/08/28 11:18:47;;;;;;;10.20;5.22;;;16.50;56.30;;;;;;5016771;28;20300;-46
2021/08/28 11:21:18;;;;;;;14.27;5.72;;;16.50;56.20;;;;;;5032718;28;20227;-57
2021/08/28 11:23:52;;;;;;;6.80;5.00;;;16.50;56.20;;;;;;5034096;28;20227;-55
2021/08/28 11:26:38;;;;;;;7.45;4.50;;;16.50;56.20;;;;;;5034163;28;20580;-50
2021/08/28 11:29:24;;;;;;;6.68;4.63;;;16.40;56.20;;;;;;5019837;28;20208;-54
2021/08/28 11:32:12;;;;;;;6.88;4.60;;;16.40;56.20;;;;;;5014339;28;20232;-55
2021/08/28 11:34:43;;;;;;;6.57;4.50;;;16.40;56.20;;;;;;5014230;28;20267;-53
2021/08/28 11:37:46;;;;;;;8.25;4.40;;;16.40;56.10;;;;;;5014046;28;20283;-52
2021/08/28 11:40:29;;;;;;;7.25;5.15;;;16.40;56.20;;;;;;5014310;28;20235;-54
2021/08/28 11:42:59;;;;;;;7.93;4.38;;;16.40;56.20;;;;;;5013864;28;20197;-47
2021/08/28 11:45:34;;;;;;;9.63;5.07;;;16.40;56.20;;;;;;5014005;28;20260;-56
2021/08/28 11:48:13;;;;;;;9.55;5.40;;;16.40;56.20;;;;;;5013892;28;20259;-53
2021/08/28 11:50:43;;;;;;;9.30;5.00;;;16.40;56.20;;;;;;5013294;28;20228;-53
2021/08/28 11:53:14;;;;;;;8.13;5.70;;;16.40;56.20;;;;;;5013390;28;20243;-42
2021/08/28 11:55:47;;;;;;;8.65;5.00;;;16.40;56.20;;;;;;5013584;28;20228;-51
2021/08/28 11:58:17;;;;;;;9.57;5.45;;;16.40;56.30;;;;;;5013811;28;20260;-49
2021/08/28 12:00:47;;;;;;;10.45;4.82;;;16.40;56.20;;;;;;5013635;28;20284;-46
2021/08/28 12:03:19;;;;;;;7.32;5.20;;;16.40;56.30;;;;;;5009365;22;20260;-59
2021/08/28 12:05:49;;;;;;;8.07;5.07;;;16.40;56.30;;;;;;4993588;28;20260;-46
2021/08/28 12:08:19;;;;;;;6.85;4.95;;;16.40;56.20;;;;;;4993765;28;20264;-56
2021/08/28 12:10:52;;;;;;;6.72;5.40;;;16.40;56.20;;;;;;4993090;28;20244;-60
2021/08/28 12:13:22;;;;;;;8.25;5.45;;;16.40;56.20;;;;;;5000378;28;20728;-46
2021/08/28 12:15:54;;;;;;;7.68;5.80;;;16.40;56.20;;;;;;5011978;28;20193;-47
2021/08/28 12:18:31;;;;;;;7.60;6.00;;;16.40;56.20;;;;;;5000702;28;20639;-46
2021/08/28 12:21:14;;;;;;;6.53;5.05;;;16.40;56.20;;;;;;4993255;28;20233;-49
2021/08/28 12:23:44;;;;;;;9.18;5.25;;;16.40;56.20;;;;;;4993735;28;20572;-48
2021/08/28 12:26:20;;;;;;;8.15;5.53;;;16.40;56.20;;;;;;4993945;28;20320;-48
2021/08/28 12:28:50;;;;;;;7.88;5.53;;;16.40;56.20;;;;;;4993419;28;20249;-46
2021/08/28 12:31:21;;;;;;;8.38;5.45;;;16.30;56.20;;;;;;4993601;28;20285;-48
2021/08/28 12:33:52;;;;;;;7.55;5.43;;;16.30;56.20;;;;;;4993436;28;20260;-51
2021/08/28 12:36:30;;;;;;;8.90;6.20;;;16.30;56.30;;;;;;4993551;28;20208;-46
2021/08/28 12:39:09;;;;;;;11.95;6.15;;;16.30;56.20;;;;;;4993293;28;20751;-47
2021/08/28 12:41:41;;;;;;;8.50;6.35;;;16.30;56.20;;;;;;4993586;28;20215;-47
2021/08/28 12:44:11;;;;;;;10.25;5.90;;;16.30;56.30;;;;;;4995535;28;20193;-55
2021/08/28 12:46:42;;;;;;;8.60;5.32;;;16.30;56.20;;;;;;4993277;28;20316;-52
2021/08/28 12:49:17;;;;;;;8.75;5.85;;;16.30;56.20;;;;;;4993276;28;20252;-52
2021/08/28 12:52:00;;;;;;;9.40;6.15;;;16.30;56.20;;;;;;4993140;28;20287;-48
2021/08/28 12:54:32;;;;;;;9.43;6.07;;;16.30;56.20;;;;;;4992874;28;20287;-47
2021/08/28 12:57:08;;;;;;;8.93;6.53;;;16.30;56.20;;;;;;4993230;28;20248;-54
2021/08/28 12:59:45;;;;;;;7.28;6.03;;;16.30;56.20;;;;;;4992769;28;20232;-49
2021/08/28 13:02:19;;;;;;;7.30;6.15;;;16.30;56.20;;;;;;5012654;23;20240;-49
2021/08/28 13:04:49;;;;;;;9.85;6.32;;;16.30;56.20;;;;;;5012485;28;20232;-54
2021/08/28 13:07:21;;;;;;;8.50;6.78;;;16.30;56.20;;;;;;5012455;28;20256;-51
2021/08/28 13:09:55;;;;;;;7.30;6.43;;;16.30;56.20;;;;;;5012509;28;20197;-49
2021/08/28 13:12:47;;;;;;;9.68;6.07;;;16.30;56.20;;;;;;5012117;28;20677;-52